默认 日期 大小 文件数 浏览量 最新下载 xml
longitude磁力链接相关资源由用户搜索指令自动获取,结果来源于网络,本站不存储任何资料,亦不承担任何责任,请于24小时内删除,搜索到46个磁力,用时0ms。
    {"06 - The Prize.mp3": 17613828, "00 - Introduction.mp3": 10355967, "01 - Imaginary Lines.mp3": 16874041, "04 - Time in a Bottle.mp3": 11280179, "05 - Powder of Sympathy.mp3": 18197404, "07 - Cogmaker's Journal.mp3": 23306955, "02 - The Sea Before Time.mp3 ...
创建时间: 2019-04-20 21:51:12 大小:300.16 MB 文件数量:16 热度:6 最近下载:2022-04-16 05:46:08
    {"06 - The Prize.mp3": 17613828, "00 - Introduction.mp3": 10355967, "01 - Imaginary Lines.mp3": 16874041, "04 - Time in a Bottle.mp3": 11280179, "05 - Powder of Sympathy.mp3": 18197404, "07 - Cogmaker's Journal.mp3": 23306955, "02 - The Sea Before Time.mp3 ...
创建时间: 2019-03-31 00:14:08 大小:300.5 MB 文件数量:17 热度:4 最近下载:2021-06-17 16:25:58
    {"folder.jpg": 86380, "08. H-4.mp3": 3068757, "13. Untitled.mp3": 6459229, "02. Tycho Brahe.mp3": 1996653, "10. Epherimedes.mp3": 2701782, "07. Jupiter Mask.mp3": 8317762, "09. Back-Quadrant.mp3": 7860961, "12. South Heading.mp3": 3636997, "05. Dead ...
创建时间: 2019-03-25 02:25:16 大小:75.31 MB 文件数量:14 热度:6 最近下载:2022-04-13 07:17:42
    {"04._Belle_Isle.flac": 22787109, "01._Bishop_School.flac": 21114835, "03._Eastern_Market.flac": 29767527, "07._Woodward_Avenue.flac": 13135971, "05._Russell_and_Eliot.flac": 30449933, "06._Raymond_Winchester.flac": 16705970, "08._That_Lucky_Old_Sun.flac": ...
创建时间: 2019-03-19 08:15:04 大小:191.65 MB 文件数量:11 热度:0 最近下载:2021-06-17 16:25:58
    {"VIDEO_TS": {"VIDEO_TS.BUP": 18432, "VIDEO_TS.IFO": 18432, "VIDEO_TS.VOB": 116736, "VTS_01_0.BUP": 20480, "VTS_01_0.IFO": 20480, "VTS_01_0.VOB": 116736, "VTS_01_1.VOB": 6615040, "VTS_02_0.BUP": 88064, "VTS_02_0.IFO": 88064, "VTS_02_0.VOB": 116736, " ...
创建时间: 2019-02-14 04:03:39 大小:7.2 GB 文件数量:27 热度:7 最近下载:2025-04-18 15:18:02
    {"04._Belle_Isle.flac": 22787109, "01._Bishop_School.flac": 21114835, "03._Eastern_Market.flac": 29767527, "07._Woodward_Avenue.flac": 13135971, "05._Russell_and_Eliot.flac": 30449933, "06._Raymond_Winchester.flac": 16705970, "08._That_Lucky_Old_Sun.flac": ...
创建时间: 2019-02-13 19:52:21 大小:191.65 MB 文件数量:11 热度:3 最近下载:2022-11-12 12:34:18
    {"cover.jpg": 48949, "metadata.opf": 5191, "The Illustrated Longitude_ The - Dava Sobel.azw3": 257244}
创建时间: 2019-01-05 19:58:52 大小:304.09 KB 文件数量:3 热度:6 最近下载:2025-01-06 09:08:03
    {"documentary.su.txt": 261, "documentary.su.url": 45, "Support GetMedia.txt": 196, "BBC Horizon Longitude.avi": 734139148}
创建时间: 2019-01-01 23:10:38 大小:700.13 MB 文件数量:4 热度:6 最近下载:2025-02-10 09:17:04
    {"Cover.png": 3205978, "03 Happy.flac": 32587240, "04 Revelate.flac": 29676323, "09 The Cost.flac": 24539300, "Audiochecker.log": 2781, "06 Star Star.flac": 21428732, "12 None But I.flac": 37998158, "08 Lay Me Down.flac": 18323511, "05 Fitzcarraldo.flac": ...
创建时间: 2018-12-24 04:23:00 大小:335.73 MB 文件数量:14 热度:5 最近下载:2022-04-23 07:04:58
    {"ART": {"73.jpg": 70921, "Disc.tif": 6708286, "Cover.tif": 14104186, "Back-In.tif": 8558146, "Back-Out.tif": 8721828, "Under-Cover.tif": 13001014}, "longitude.log": 895, "Groundtruther - longitude.ape": 293117288, "Groundtruther - longitude.cue": 1624}
创建时间: 2018-12-23 21:42:06 大小:328.33 MB 文件数量:9 热度:5 最近下载:2022-04-23 06:40:13
    {"Longitude.2000.XviD.DVDRip.656x368.rus.eng.part.1.from.2.avi": 983595008, "Longitude.2000.XviD.DVDRip.656x368.rus.eng.part.2.from.2.avi": 1214425088}
创建时间: 2018-12-23 08:58:57 大小:2.05 GB 文件数量:2 热度:6 最近下载:2022-04-23 05:49:30
    ... Longitude.mp3": 2851930, "12 Disc 03 Longitude.mp3": 3866554}, "Disc 04 Longitude": {"01 Longitude ... - Disc 4.mp3": 2470046, "02 Longitude ...
创建时间: 2018-12-22 23:47:11 大小:165.6 MB 文件数量:50 热度:4 最近下载:2022-04-23 06:39:45
    {"Longitude.divx": 1808261972}
创建时间: 2018-12-22 01:28:55 大小:1.68 GB 文件数量:1 热度:4 最近下载:2022-04-23 07:03:49
    ... kostenloser_usenetzugang.rar": 2245918, "03-martial_solal_trio-longitude-snook.mp3": 5451241, "09- ... .mp3": 6913144, "00-martial_solal_trio-longitude-2008-snook.jpg": 1027092, ... "00-martial_solal_trio-longitude-2008-snook.m3u": 472, ...
创建时间: 2018-12-21 16:30:20 大小:63.31 MB 文件数量:19 热度:6 最近下载:2022-04-23 06:37:42
    ... 's Detroit- Latitude 42-30 Longitude 83.wv": 202050848, "Yusef Lateef ... 's Detroit- Latitude 42-30 Longitude 83.cue": 1434, "Yusef Lateef ... 's Detroit- Latitude 42-30 Longitude 83.log": 4754, "Yusef Lateef ... 's Detroit- Latitude 42-30 Longitude 83.wv.cue": 1433}
创建时间: 2018-12-14 10:04:14 大小:192.77 MB 文件数量:5 热度:4 最近下载:2022-04-23 06:14:36
    ... ": 340945, "Martial Solal - Longitude.cue": 1620, "Martial Solal - Longitude.log": 6382, "Martial ...
创建时间: 2018-12-14 03:12:22 大小:289.74 MB 文件数量:11 热度:4 最近下载:2022-04-23 06:03:13
    ... .org.mp3": 11149604, "07. Latitude, Longitude - www.musicasparabaixar.org.mp3": 12821475 ...
创建时间: 2018-12-12 22:07:54 大小:169.12 MB 文件数量:15 热度:8 最近下载:2024-04-09 02:22:03
    ... Shade.mp3": 8586337, "The Frames - Longitude.jpg": 201759, "11 Ship Caught ...
创建时间: 2018-12-04 06:29:34 大小:126.51 MB 文件数量:13 热度:9 最近下载:2023-04-21 11:40:02
    {"Longitude Part 1.mkv": 425880501, "Longitude Part 2.mkv": 494897501}
创建时间: 2018-11-15 03:00:18 大小:878.12 MB 文件数量:2 热度:8 最近下载:2023-04-15 07:00:14
    ... DVDRip.x264-DSC.nfo": 755, "Longitude.2000.Part.1.DVDRip.x264 ... -DSC.mkv": 1189814194, "Longitude.2000.Part.2.DVDRip.x264 ... -DSC.mkv": 1370098715, "Longitude.2000.Part.1.DVDRip.x264 ... -DSC.ENG.srt": 102916, "Longitude.2000.Part.2.DVDRip.x264 ...
创建时间: 2018-11-11 12:53:43 大小:2.39 GB 文件数量:6 热度:11 最近下载:2025-07-28 03:38:02